sensor_id;sensor_type;location;lat;lon;timestamp;P1;durP1;ratioP1;P2;durP2;ratioP2
56136;SDS011;42008;52.934;5.884;2022-12-08T00:01:13;11.13;;;1.70;;
56136;SDS011;42008;52.934;5.884;2022-12-08T00:03:41;5.43;;;1.13;;
56136;SDS011;42008;52.934;5.884;2022-12-08T00:06:07;9.00;;;1.80;;
56136;SDS011;42008;52.934;5.884;2022-12-08T00:09:19;6.20;;;2.10;;
56136;SDS011;42008;52.934;5.884;2022-12-08T00:12:10;5.63;;;1.10;;
56136;SDS011;42008;52.934;5.884;2022-12-08T00:14:37;6.53;;;1.33;;
56136;SDS011;42008;52.934;5.884;2022-12-08T00:17:06;11.97;;;1.37;;
56136;SDS011;42008;52.934;5.884;2022-12-08T00:19:33;5.93;;;1.40;;
56136;SDS011;42008;52.934;5.884;2022-12-08T00:22:00;10.93;;;1.57;;
56136;SDS011;42008;52.934;5.884;2022-12-08T00:24:29;5.93;;;1.17;;
56136;SDS011;42008;52.934;5.884;2022-12-08T00:26:55;9.97;;;1.70;;
56136;SDS011;42008;52.934;5.884;2022-12-08T00:29:21;6.67;;;1.20;;
56136;SDS011;42008;52.934;5.884;2022-12-08T00:31:47;7.60;;;1.20;;
56136;SDS011;42008;52.934;5.884;2022-12-08T00:34:13;13.20;;;1.70;;
56136;SDS011;42008;52.934;5.884;2022-12-08T00:36:39;10.67;;;1.50;;
56136;SDS011;42008;52.934;5.884;2022-12-08T00:39:05;13.87;;;1.33;;
56136;SDS011;42008;52.934;5.884;2022-12-08T00:41:31;9.47;;;1.20;;
56136;SDS011;42008;52.934;5.884;2022-12-08T00:44:16;9.83;;;1.20;;
56136;SDS011;42008;52.934;5.884;2022-12-08T00:46:45;5.57;;;1.20;;
56136;SDS011;42008;52.934;5.884;2022-12-08T00:49:11;5.30;;;1.13;;
56136;SDS011;42008;52.934;5.884;2022-12-08T00:51:37;11.07;;;1.20;;
56136;SDS011;42008;52.934;5.884;2022-12-08T00:54:03;4.83;;;1.00;;
56136;SDS011;42008;52.934;5.884;2022-12-08T00:56:30;5.47;;;0.97;;
56136;SDS011;42008;52.934;5.884;2022-12-08T00:58:56;6.13;;;0.90;;
56136;SDS011;42008;52.934;5.884;2022-12-08T01:01:21;6.33;;;0.90;;
56136;SDS011;42008;52.934;5.884;2022-12-08T01:03:47;4.83;;;0.90;;
56136;SDS011;42008;52.934;5.884;2022-12-08T01:06:13;3.17;;;0.70;;
56136;SDS011;42008;52.934;5.884;2022-12-08T01:08:39;6.47;;;1.40;;
56136;SDS011;42008;52.934;5.884;2022-12-08T01:11:06;4.17;;;0.83;;
56136;SDS011;42008;52.934;5.884;2022-12-08T01:13:33;3.23;;;0.80;;
56136;SDS011;42008;52.934;5.884;2022-12-08T01:15:59;5.90;;;0.90;;
56136;SDS011;42008;52.934;5.884;2022-12-08T01:18:28;4.83;;;1.20;;
56136;SDS011;42008;52.934;5.884;2022-12-08T01:20:54;7.60;;;1.00;;
56136;SDS011;42008;52.934;5.884;2022-12-08T01:23:20;10.63;;;1.20;;
56136;SDS011;42008;52.934;5.884;2022-12-08T01:25:45;4.63;;;0.90;;
56136;SDS011;42008;52.934;5.884;2022-12-08T01:28:11;3.93;;;1.27;;
56136;SDS011;42008;52.934;5.884;2022-12-08T01:30:37;8.73;;;1.10;;
56136;SDS011;42008;52.934;5.884;2022-12-08T01:33:03;9.87;;;1.33;;
56136;SDS011;42008;52.934;5.884;2022-12-08T01:35:28;4.97;;;1.10;;
56136;SDS011;42008;52.934;5.884;2022-12-08T01:37:54;5.27;;;0.90;;
56136;SDS011;42008;52.934;5.884;2022-12-08T01:40:20;6.60;;;1.20;;
56136;SDS011;42008;52.934;5.884;2022-12-08T01:42:45;7.97;;;1.30;;
56136;SDS011;42008;52.934;5.884;2022-12-08T01:45:24;11.00;;;1.30;;
56136;SDS011;42008;52.934;5.884;2022-12-08T01:47:53;6.07;;;0.80;;
56136;SDS011;42008;52.934;5.884;2022-12-08T01:50:23;4.10;;;1.00;;
56136;SDS011;42008;52.934;5.884;2022-12-08T01:53:00;10.37;;;2.67;;
56136;SDS011;42008;52.934;5.884;2022-12-08T01:55:40;9.37;;;1.70;;
56136;SDS011;42008;52.934;5.884;2022-12-08T01:58:26;6.73;;;1.23;;
56136;SDS011;42008;52.934;5.884;2022-12-08T02:00:54;5.50;;;1.23;;
56136;SDS011;42008;52.934;5.884;2022-12-08T02:03:30;4.83;;;0.90;;
56136;SDS011;42008;52.934;5.884;2022-12-08T02:06:01;6.73;;;1.00;;
56136;SDS011;42008;52.934;5.884;2022-12-08T02:08:27;4.17;;;1.10;;
56136;SDS011;42008;52.934;5.884;2022-12-08T02:10:54;9.17;;;1.27;;
56136;SDS011;42008;52.934;5.884;2022-12-08T02:13:20;4.73;;;1.07;;
56136;SDS011;42008;52.934;5.884;2022-12-08T02:21:45;3.37;;;1.03;;
56136;SDS011;42008;52.934;5.884;2022-12-08T02:24:22;9.07;;;1.40;;
56136;SDS011;42008;52.934;5.884;2022-12-08T02:32:22;8.60;;;1.27;;
56136;SDS011;42008;52.934;5.884;2022-12-08T02:35:13;7.50;;;1.20;;
56136;SDS011;42008;52.934;5.884;2022-12-08T02:37:49;5.53;;;1.10;;
56136;SDS011;42008;52.934;5.884;2022-12-08T02:40:53;9.00;;;1.10;;
56136;SDS011;42008;52.934;5.884;2022-12-08T02:43:21;4.60;;;1.40;;
56136;SDS011;42008;52.934;5.884;2022-12-08T02:45:58;7.00;;;1.20;;
56136;SDS011;42008;52.934;5.884;2022-12-08T02:48:28;8.10;;;1.10;;
56136;SDS011;42008;52.934;5.884;2022-12-08T02:50:54;6.73;;;1.20;;
56136;SDS011;42008;52.934;5.884;2022-12-08T02:53:20;9.07;;;1.23;;
56136;SDS011;42008;52.934;5.884;2022-12-08T03:06:44;5.37;;;1.20;;
56136;SDS011;42008;52.934;5.884;2022-12-08T03:09:18;6.63;;;1.10;;
56136;SDS011;42008;52.934;5.884;2022-12-08T03:12:03;4.27;;;1.13;;
56136;SDS011;42008;52.934;5.884;2022-12-08T03:14:29;9.27;;;1.10;;
56136;SDS011;42008;52.934;5.884;2022-12-08T03:16:57;9.27;;;1.50;;
56136;SDS011;42008;52.934;5.884;2022-12-08T03:19:25;5.70;;;1.00;;
56136;SDS011;42008;52.934;5.884;2022-12-08T03:21:57;4.10;;;1.02;;
56136;SDS011;42008;52.934;5.884;2022-12-08T03:24:27;5.10;;;0.90;;
56136;SDS011;42008;52.934;5.884;2022-12-08T03:27:00;7.20;;;0.88;;
56136;SDS011;42008;52.934;5.884;2022-12-08T03:29:29;7.03;;;1.07;;
56136;SDS011;42008;52.934;5.884;2022-12-08T03:31:57;6.47;;;1.00;;
56136;SDS011;42008;52.934;5.884;2022-12-08T03:34:30;5.90;;;1.20;;
56136;SDS011;42008;52.934;5.884;2022-12-08T03:36:55;5.30;;;1.10;;
56136;SDS011;42008;52.934;5.884;2022-12-08T03:39:24;5.07;;;0.90;;
56136;SDS011;42008;52.934;5.884;2022-12-08T03:41:49;4.53;;;1.00;;
56136;SDS011;42008;52.934;5.884;2022-12-08T03:44:15;7.23;;;0.80;;
56136;SDS011;42008;52.934;5.884;2022-12-08T03:46:41;2.73;;;0.70;;
56136;SDS011;42008;52.934;5.884;2022-12-08T03:49:06;7.90;;;1.13;;
56136;SDS011;42008;52.934;5.884;2022-12-08T03:51:32;4.03;;;0.60;;
56136;SDS011;42008;52.934;5.884;2022-12-08T03:53:57;4.50;;;1.10;;
56136;SDS011;42008;52.934;5.884;2022-12-08T03:56:27;10.90;;;1.83;;
56136;SDS011;42008;52.934;5.884;2022-12-08T03:59:00;7.33;;;1.03;;
56136;SDS011;42008;52.934;5.884;2022-12-08T04:01:26;2.93;;;0.60;;
56136;SDS011;42008;52.934;5.884;2022-12-08T04:03:52;4.70;;;0.70;;
56136;SDS011;42008;52.934;5.884;2022-12-08T04:06:18;3.33;;;0.70;;
56136;SDS011;42008;52.934;5.884;2022-12-08T04:08:45;3.53;;;0.90;;
56136;SDS011;42008;52.934;5.884;2022-12-08T04:11:11;6.57;;;0.90;;
56136;SDS011;42008;52.934;5.884;2022-12-08T04:13:37;5.50;;;0.90;;
56136;SDS011;42008;52.934;5.884;2022-12-08T04:16:03;8.03;;;1.00;;
56136;SDS011;42008;52.934;5.884;2022-12-08T04:18:30;4.57;;;0.73;;
56136;SDS011;42008;52.934;5.884;2022-12-08T04:20:56;3.80;;;0.80;;
56136;SDS011;42008;52.934;5.884;2022-12-08T04:23:21;2.97;;;0.60;;
56136;SDS011;42008;52.934;5.884;2022-12-08T04:25:47;4.37;;;0.90;;
56136;SDS011;42008;52.934;5.884;2022-12-08T04:28:13;3.90;;;0.90;;
56136;SDS011;42008;52.934;5.884;2022-12-08T04:30:39;3.00;;;0.70;;
56136;SDS011;42008;52.934;5.884;2022-12-08T04:33:04;2.80;;;0.60;;
56136;SDS011;42008;52.934;5.884;2022-12-08T04:35:30;4.07;;;0.83;;
56136;SDS011;42008;52.934;5.884;2022-12-08T04:37:55;5.13;;;0.80;;
56136;SDS011;42008;52.934;5.884;2022-12-08T04:40:21;4.83;;;0.87;;
56136;SDS011;42008;52.934;5.884;2022-12-08T04:42:47;7.10;;;0.90;;
56136;SDS011;42008;52.934;5.884;2022-12-08T04:45:12;5.73;;;0.83;;
56136;SDS011;42008;52.934;5.884;2022-12-08T04:47:38;6.27;;;1.00;;
56136;SDS011;42008;52.934;5.884;2022-12-08T04:50:04;5.50;;;0.87;;
56136;SDS011;42008;52.934;5.884;2022-12-08T04:52:30;6.73;;;1.07;;
56136;SDS011;42008;52.934;5.884;2022-12-08T04:54:56;6.33;;;1.00;;
56136;SDS011;42008;52.934;5.884;2022-12-08T04:57:22;8.37;;;0.93;;
56136;SDS011;42008;52.934;5.884;2022-12-08T04:59:47;6.13;;;0.73;;
56136;SDS011;42008;52.934;5.884;2022-12-08T05:02:13;4.13;;;0.70;;
56136;SDS011;42008;52.934;5.884;2022-12-08T05:04:39;5.43;;;0.97;;
56136;SDS011;42008;52.934;5.884;2022-12-08T05:07:04;3.60;;;0.80;;
56136;SDS011;42008;52.934;5.884;2022-12-08T05:09:30;11.23;;;1.20;;
56136;SDS011;42008;52.934;5.884;2022-12-08T05:11:55;9.43;;;1.17;;
56136;SDS011;42008;52.934;5.884;2022-12-08T05:14:21;3.27;;;0.80;;
56136;SDS011;42008;52.934;5.884;2022-12-08T05:16:47;7.73;;;0.90;;
56136;SDS011;42008;52.934;5.884;2022-12-08T05:19:13;6.10;;;1.03;;
56136;SDS011;42008;52.934;5.884;2022-12-08T05:21:38;5.37;;;1.10;;
56136;SDS011;42008;52.934;5.884;2022-12-08T05:24:04;4.43;;;0.90;;
56136;SDS011;42008;52.934;5.884;2022-12-08T05:26:30;7.87;;;1.57;;
56136;SDS011;42008;52.934;5.884;2022-12-08T05:28:55;9.80;;;1.10;;
56136;SDS011;42008;52.934;5.884;2022-12-08T05:31:21;7.13;;;1.00;;
56136;SDS011;42008;52.934;5.884;2022-12-08T05:33:48;7.07;;;1.00;;
56136;SDS011;42008;52.934;5.884;2022-12-08T05:36:16;8.60;;;0.90;;
56136;SDS011;42008;52.934;5.884;2022-12-08T05:38:43;10.37;;;1.30;;
56136;SDS011;42008;52.934;5.884;2022-12-08T05:41:10;7.60;;;1.50;;
56136;SDS011;42008;52.934;5.884;2022-12-08T05:43:38;7.73;;;1.17;;
56136;SDS011;42008;52.934;5.884;2022-12-08T05:46:04;7.83;;;1.17;;
56136;SDS011;42008;52.934;5.884;2022-12-08T05:48:31;6.17;;;1.00;;
56136;SDS011;42008;52.934;5.884;2022-12-08T05:50:56;3.77;;;0.80;;
56136;SDS011;42008;52.934;5.884;2022-12-08T05:53:22;6.17;;;0.90;;
56136;SDS011;42008;52.934;5.884;2022-12-08T05:55:48;5.97;;;1.07;;
56136;SDS011;42008;52.934;5.884;2022-12-08T05:58:14;5.80;;;0.80;;
56136;SDS011;42008;52.934;5.884;2022-12-08T06:00:41;3.47;;;0.80;;
56136;SDS011;42008;52.934;5.884;2022-12-08T06:03:07;4.57;;;0.80;;
56136;SDS011;42008;52.934;5.884;2022-12-08T06:05:34;3.40;;;0.90;;
56136;SDS011;42008;52.934;5.884;2022-12-08T06:08:00;5.73;;;0.97;;
56136;SDS011;42008;52.934;5.884;2022-12-08T06:10:26;8.77;;;1.10;;
56136;SDS011;42008;52.934;5.884;2022-12-08T06:12:51;3.87;;;0.70;;
56136;SDS011;42008;52.934;5.884;2022-12-08T06:15:17;6.40;;;1.13;;
56136;SDS011;42008;52.934;5.884;2022-12-08T06:17:43;6.57;;;1.13;;
56136;SDS011;42008;52.934;5.884;2022-12-08T06:20:08;8.10;;;1.80;;
56136;SDS011;42008;52.934;5.884;2022-12-08T06:22:34;5.40;;;1.00;;
56136;SDS011;42008;52.934;5.884;2022-12-08T06:25:00;9.57;;;1.10;;
56136;SDS011;42008;52.934;5.884;2022-12-08T06:27:26;7.30;;;1.47;;
56136;SDS011;42008;52.934;5.884;2022-12-08T06:29:52;10.57;;;3.00;;
56136;SDS011;42008;52.934;5.884;2022-12-08T06:32:18;10.97;;;3.20;;
56136;SDS011;42008;52.934;5.884;2022-12-08T06:34:43;9.57;;;3.30;;
56136;SDS011;42008;52.934;5.884;2022-12-08T06:37:09;14.17;;;2.80;;
56136;SDS011;42008;52.934;5.884;2022-12-08T06:39:35;7.33;;;1.70;;
56136;SDS011;42008;52.934;5.884;2022-12-08T06:42:00;10.07;;;3.10;;
56136;SDS011;42008;52.934;5.884;2022-12-08T06:44:44;8.77;;;1.60;;
56136;SDS011;42008;52.934;5.884;2022-12-08T06:47:10;5.60;;;1.10;;
56136;SDS011;42008;52.934;5.884;2022-12-08T06:49:36;14.77;;;2.70;;
56136;SDS011;42008;52.934;5.884;2022-12-08T06:52:01;5.67;;;0.87;;
56136;SDS011;42008;52.934;5.884;2022-12-08T06:54:27;8.67;;;1.53;;
56136;SDS011;42008;52.934;5.884;2022-12-08T06:56:53;5.30;;;1.20;;
56136;SDS011;42008;52.934;5.884;2022-12-08T06:59:18;4.83;;;1.10;;
56136;SDS011;42008;52.934;5.884;2022-12-08T07:01:44;4.63;;;0.93;;
56136;SDS011;42008;52.934;5.884;2022-12-08T07:04:10;10.10;;;1.33;;
56136;SDS011;42008;52.934;5.884;2022-12-08T07:06:36;6.73;;;1.00;;
56136;SDS011;42008;52.934;5.884;2022-12-08T07:09:02;6.53;;;1.07;;
56136;SDS011;42008;52.934;5.884;2022-12-08T07:11:28;6.13;;;1.30;;
56136;SDS011;42008;52.934;5.884;2022-12-08T07:13:56;10.30;;;1.63;;
56136;SDS011;42008;52.934;5.884;2022-12-08T07:16:22;4.77;;;1.17;;
56136;SDS011;42008;52.934;5.884;2022-12-08T07:18:48;6.97;;;1.20;;
56136;SDS011;42008;52.934;5.884;2022-12-08T07:21:14;4.83;;;0.97;;
56136;SDS011;42008;52.934;5.884;2022-12-08T07:23:41;11.13;;;1.37;;
56136;SDS011;42008;52.934;5.884;2022-12-08T07:26:10;6.20;;;1.20;;
56136;SDS011;42008;52.934;5.884;2022-12-08T07:28:37;8.43;;;1.47;;
56136;SDS011;42008;52.934;5.884;2022-12-08T07:31:04;9.10;;;1.70;;
56136;SDS011;42008;52.934;5.884;2022-12-08T07:33:31;8.53;;;1.47;;
56136;SDS011;42008;52.934;5.884;2022-12-08T07:35:57;9.40;;;1.40;;
56136;SDS011;42008;52.934;5.884;2022-12-08T07:38:24;5.10;;;1.30;;
56136;SDS011;42008;52.934;5.884;2022-12-08T07:40:51;10.00;;;1.23;;
56136;SDS011;42008;52.934;5.884;2022-12-08T07:43:17;4.60;;;1.30;;
56136;SDS011;42008;52.934;5.884;2022-12-08T07:45:43;9.80;;;1.33;;
56136;SDS011;42008;52.934;5.884;2022-12-08T07:48:09;8.17;;;1.20;;
56136;SDS011;42008;52.934;5.884;2022-12-08T07:50:35;6.63;;;1.40;;
56136;SDS011;42008;52.934;5.884;2022-12-08T07:53:01;6.80;;;1.63;;
56136;SDS011;42008;52.934;5.884;2022-12-08T07:55:26;11.37;;;1.77;;
56136;SDS011;42008;52.934;5.884;2022-12-08T07:57:52;5.13;;;1.20;;
56136;SDS011;42008;52.934;5.884;2022-12-08T08:00:18;9.20;;;1.47;;
56136;SDS011;42008;52.934;5.884;2022-12-08T08:02:44;6.03;;;1.33;;
56136;SDS011;42008;52.934;5.884;2022-12-08T08:05:10;8.70;;;1.40;;
56136;SDS011;42008;52.934;5.884;2022-12-08T08:07:36;6.33;;;1.20;;
56136;SDS011;42008;52.934;5.884;2022-12-08T08:10:02;5.13;;;1.37;;
56136;SDS011;42008;52.934;5.884;2022-12-08T08:12:30;5.40;;;1.23;;
56136;SDS011;42008;52.934;5.884;2022-12-08T08:14:56;8.77;;;1.37;;
56136;SDS011;42008;52.934;5.884;2022-12-08T08:17:22;9.87;;;2.03;;
56136;SDS011;42008;52.934;5.884;2022-12-08T08:19:48;10.00;;;2.87;;
56136;SDS011;42008;52.934;5.884;2022-12-08T08:22:13;15.23;;;4.07;;
56136;SDS011;42008;52.934;5.884;2022-12-08T08:24:39;11.77;;;2.50;;
56136;SDS011;42008;52.934;5.884;2022-12-08T08:27:04;8.97;;;1.93;;
56136;SDS011;42008;52.934;5.884;2022-12-08T08:29:30;9.13;;;1.70;;
56136;SDS011;42008;52.934;5.884;2022-12-08T08:31:56;5.63;;;1.43;;
56136;SDS011;42008;52.934;5.884;2022-12-08T08:34:21;6.80;;;1.70;;
56136;SDS011;42008;52.934;5.884;2022-12-08T08:36:47;5.00;;;1.43;;
56136;SDS011;42008;52.934;5.884;2022-12-08T08:39:12;8.27;;;2.33;;
56136;SDS011;42008;52.934;5.884;2022-12-08T08:41:38;8.47;;;1.70;;
56136;SDS011;42008;52.934;5.884;2022-12-08T08:44:03;9.33;;;1.73;;
56136;SDS011;42008;52.934;5.884;2022-12-08T08:46:29;16.40;;;2.30;;
56136;SDS011;42008;52.934;5.884;2022-12-08T08:48:55;6.80;;;1.57;;
56136;SDS011;42008;52.934;5.884;2022-12-08T08:51:21;7.57;;;1.60;;
56136;SDS011;42008;52.934;5.884;2022-12-08T08:53:47;5.47;;;1.40;;
56136;SDS011;42008;52.934;5.884;2022-12-08T08:56:14;7.63;;;1.70;;
56136;SDS011;42008;52.934;5.884;2022-12-08T08:58:43;7.23;;;1.60;;
56136;SDS011;42008;52.934;5.884;2022-12-08T09:01:14;9.07;;;1.80;;
56136;SDS011;42008;52.934;5.884;2022-12-08T09:03:41;9.63;;;2.23;;
56136;SDS011;42008;52.934;5.884;2022-12-08T09:06:07;6.90;;;1.80;;
56136;SDS011;42008;52.934;5.884;2022-12-08T09:08:33;5.53;;;1.60;;
56136;SDS011;42008;52.934;5.884;2022-12-08T09:10:58;5.67;;;1.90;;
56136;SDS011;42008;52.934;5.884;2022-12-08T09:13:24;8.00;;;1.83;;
56136;SDS011;42008;52.934;5.884;2022-12-08T09:15:49;5.43;;;2.00;;
56136;SDS011;42008;52.934;5.884;2022-12-08T09:18:15;7.80;;;1.73;;
56136;SDS011;42008;52.934;5.884;2022-12-08T09:20:40;7.37;;;1.90;;
56136;SDS011;42008;52.934;5.884;2022-12-08T09:23:06;7.33;;;1.50;;
56136;SDS011;42008;52.934;5.884;2022-12-08T09:25:32;4.97;;;1.97;;
56136;SDS011;42008;52.934;5.884;2022-12-08T09:27:57;7.43;;;1.83;;
56136;SDS011;42008;52.934;5.884;2022-12-08T09:30:23;9.70;;;1.73;;
56136;SDS011;42008;52.934;5.884;2022-12-08T09:32:48;8.97;;;1.47;;
56136;SDS011;42008;52.934;5.884;2022-12-08T09:35:14;16.07;;;1.80;;
56136;SDS011;42008;52.934;5.884;2022-12-08T09:37:39;5.57;;;1.47;;
56136;SDS011;42008;52.934;5.884;2022-12-08T09:40:05;4.80;;;1.53;;
56136;SDS011;42008;52.934;5.884;2022-12-08T09:42:41;5.00;;;1.87;;
56136;SDS011;42008;52.934;5.884;2022-12-08T09:45:27;6.53;;;1.90;;
56136;SDS011;42008;52.934;5.884;2022-12-08T09:47:58;9.10;;;1.67;;
56136;SDS011;42008;52.934;5.884;2022-12-08T09:50:39;8.02;;;1.60;;
56136;SDS011;42008;52.934;5.884;2022-12-08T09:53:15;8.30;;;2.77;;
56136;SDS011;42008;52.934;5.884;2022-12-08T09:55:46;10.50;;;3.20;;
56136;SDS011;42008;52.934;5.884;2022-12-08T10:00:56;7.33;;;2.20;;
56136;SDS011;42008;52.934;5.884;2022-12-08T10:03:23;7.73;;;2.07;;
56136;SDS011;42008;52.934;5.884;2022-12-08T10:08:51;9.93;;;1.52;;
56136;SDS011;42008;52.934;5.884;2022-12-08T10:14:16;9.35;;;1.30;;
56136;SDS011;42008;52.934;5.884;2022-12-08T10:16:53;10.13;;;2.37;;
56136;SDS011;42008;52.934;5.884;2022-12-08T10:19:28;11.20;;;3.57;;
56136;SDS011;42008;52.934;5.884;2022-12-08T10:21:55;9.07;;;2.40;;
56136;SDS011;42008;52.934;5.884;2022-12-08T10:24:32;7.07;;;1.60;;
56136;SDS011;42008;52.934;5.884;2022-12-08T10:27:01;6.77;;;1.50;;
56136;SDS011;42008;52.934;5.884;2022-12-08T10:29:29;8.27;;;1.50;;
56136;SDS011;42008;52.934;5.884;2022-12-08T10:31:56;5.63;;;1.40;;
56136;SDS011;42008;52.934;5.884;2022-12-08T10:34:22;10.80;;;1.67;;
56136;SDS011;42008;52.934;5.884;2022-12-08T10:36:56;4.93;;;1.43;;
56136;SDS011;42008;52.934;5.884;2022-12-08T10:44:35;7.73;;;1.27;;
56136;SDS011;42008;52.934;5.884;2022-12-08T10:47:18;7.40;;;1.40;;
56136;SDS011;42008;52.934;5.884;2022-12-08T10:49:46;4.63;;;1.30;;
56136;SDS011;42008;52.934;5.884;2022-12-08T10:52:29;6.20;;;1.27;;
56136;SDS011;42008;52.934;5.884;2022-12-08T10:54:55;3.40;;;0.90;;
56136;SDS011;42008;52.934;5.884;2022-12-08T10:57:24;5.57;;;1.13;;
56136;SDS011;42008;52.934;5.884;2022-12-08T10:59:53;6.70;;;1.40;;
56136;SDS011;42008;52.934;5.884;2022-12-08T11:02:20;3.10;;;0.80;;
56136;SDS011;42008;52.934;5.884;2022-12-08T11:04:46;5.13;;;0.80;;
56136;SDS011;42008;52.934;5.884;2022-12-08T11:07:18;3.87;;;0.97;;
56136;SDS011;42008;52.934;5.884;2022-12-08T11:09:46;3.77;;;0.80;;
56136;SDS011;42008;52.934;5.884;2022-12-08T11:12:17;3.07;;;0.70;;
56136;SDS011;42008;52.934;5.884;2022-12-08T11:17:27;2.45;;;0.63;;
56136;SDS011;42008;52.934;5.884;2022-12-08T11:22:45;4.17;;;0.63;;
56136;SDS011;42008;52.934;5.884;2022-12-08T11:25:20;4.97;;;1.00;;
56136;SDS011;42008;52.934;5.884;2022-12-08T11:28:00;6.07;;;1.43;;
56136;SDS011;42008;52.934;5.884;2022-12-08T11:30:30;5.30;;;1.40;;
56136;SDS011;42008;52.934;5.884;2022-12-08T11:33:12;5.17;;;1.37;;
56136;SDS011;42008;52.934;5.884;2022-12-08T11:36:06;5.57;;;1.50;;
56136;SDS011;42008;52.934;5.884;2022-12-08T11:38:39;4.90;;;1.50;;
56136;SDS011;42008;52.934;5.884;2022-12-08T11:41:09;7.97;;;1.40;;
56136;SDS011;42008;52.934;5.884;2022-12-08T11:43:45;4.03;;;1.02;;
56136;SDS011;42008;52.934;5.884;2022-12-08T11:46:31;5.83;;;0.90;;
56136;SDS011;42008;52.934;5.884;2022-12-08T11:49:04;4.00;;;1.00;;
56136;SDS011;42008;52.934;5.884;2022-12-08T11:51:45;3.88;;;1.13;;
56136;SDS011;42008;52.934;5.884;2022-12-08T11:54:28;4.82;;;1.20;;
56136;SDS011;42008;52.934;5.884;2022-12-08T11:56:58;3.80;;;1.00;;
56136;SDS011;42008;52.934;5.884;2022-12-08T12:01:56;4.60;;;1.10;;
56136;SDS011;42008;52.934;5.884;2022-12-08T12:07:13;4.80;;;1.40;;
56136;SDS011;42008;52.934;5.884;2022-12-08T12:15:30;8.57;;;1.83;;
56136;SDS011;42008;52.934;5.884;2022-12-08T12:18:56;9.27;;;1.70;;
56136;SDS011;42008;52.934;5.884;2022-12-08T12:21:32;5.93;;;1.33;;
56136;SDS011;42008;52.934;5.884;2022-12-08T12:24:05;8.63;;;1.73;;
56136;SDS011;42008;52.934;5.884;2022-12-08T12:26:35;6.20;;;2.30;;
56136;SDS011;42008;52.934;5.884;2022-12-08T12:29:04;9.13;;;1.50;;
56136;SDS011;42008;52.934;5.884;2022-12-08T12:31:36;6.30;;;1.40;;
56136;SDS011;42008;52.934;5.884;2022-12-08T12:34:27;10.93;;;2.83;;
56136;SDS011;42008;52.934;5.884;2022-12-08T12:37:12;9.67;;;1.87;;
56136;SDS011;42008;52.934;5.884;2022-12-08T12:40:01;9.00;;;1.90;;
56136;SDS011;42008;52.934;5.884;2022-12-08T12:43:23;10.00;;;1.50;;
56136;SDS011;42008;52.934;5.884;2022-12-08T12:47:46;10.27;;;1.60;;
56136;SDS011;42008;52.934;5.884;2022-12-08T13:03:44;10.27;;;1.63;;
56136;SDS011;42008;52.934;5.884;2022-12-08T13:06:14;7.73;;;1.50;;
56136;SDS011;42008;52.934;5.884;2022-12-08T13:08:57;8.20;;;1.70;;
56136;SDS011;42008;52.934;5.884;2022-12-08T13:11:24;6.40;;;1.40;;
56136;SDS011;42008;52.934;5.884;2022-12-08T13:13:54;9.47;;;1.93;;
56136;SDS011;42008;52.934;5.884;2022-12-08T13:16:31;10.67;;;2.20;;
56136;SDS011;42008;52.934;5.884;2022-12-08T13:19:00;7.25;;;1.48;;
56136;SDS011;42008;52.934;5.884;2022-12-08T13:21:32;6.17;;;1.43;;
56136;SDS011;42008;52.934;5.884;2022-12-08T13:26:47;5.47;;;1.57;;
56136;SDS011;42008;52.934;5.884;2022-12-08T13:29:24;5.50;;;1.00;;
56136;SDS011;42008;52.934;5.884;2022-12-08T13:47:32;5.83;;;1.93;;
56136;SDS011;42008;52.934;5.884;2022-12-08T13:52:37;5.13;;;1.50;;
56136;SDS011;42008;52.934;5.884;2022-12-08T13:55:28;5.70;;;1.70;;
56136;SDS011;42008;52.934;5.884;2022-12-08T13:58:00;4.83;;;1.47;;
56136;SDS011;42008;52.934;5.884;2022-12-08T14:00:25;13.50;;;2.23;;
56136;SDS011;42008;52.934;5.884;2022-12-08T14:02:51;5.53;;;1.40;;
56136;SDS011;42008;52.934;5.884;2022-12-08T14:05:21;4.87;;;1.60;;
56136;SDS011;42008;52.934;5.884;2022-12-08T14:07:48;3.90;;;1.40;;
56136;SDS011;42008;52.934;5.884;2022-12-08T14:10:24;5.17;;;1.70;;
56136;SDS011;42008;52.934;5.884;2022-12-08T14:12:58;3.77;;;1.57;;
56136;SDS011;42008;52.934;5.884;2022-12-08T14:15:26;6.50;;;1.60;;
56136;SDS011;42008;52.934;5.884;2022-12-08T14:17:53;6.63;;;1.87;;
56136;SDS011;42008;52.934;5.884;2022-12-08T14:20:27;7.37;;;1.90;;
56136;SDS011;42008;52.934;5.884;2022-12-08T14:22:55;6.30;;;1.43;;
56136;SDS011;42008;52.934;5.884;2022-12-08T14:25:22;5.43;;;1.70;;
56136;SDS011;42008;52.934;5.884;2022-12-08T14:27:49;4.07;;;1.70;;
56136;SDS011;42008;52.934;5.884;2022-12-08T14:30:32;7.93;;;1.87;;
56136;SDS011;42008;52.934;5.884;2022-12-08T14:33:02;5.07;;;1.80;;
56136;SDS011;42008;52.934;5.884;2022-12-08T14:38:02;8.02;;;3.20;;
56136;SDS011;42008;52.934;5.884;2022-12-08T14:40:33;9.07;;;3.37;;
56136;SDS011;42008;52.934;5.884;2022-12-08T14:50:44;7.73;;;2.00;;
56136;SDS011;42008;52.934;5.884;2022-12-08T14:53:19;7.27;;;1.53;;
56136;SDS011;42008;52.934;5.884;2022-12-08T14:55:46;7.63;;;2.43;;
56136;SDS011;42008;52.934;5.884;2022-12-08T14:58:16;7.50;;;1.90;;
56136;SDS011;42008;52.934;5.884;2022-12-08T15:00:54;5.07;;;1.90;;
56136;SDS011;42008;52.934;5.884;2022-12-08T15:03:22;9.03;;;2.00;;
56136;SDS011;42008;52.934;5.884;2022-12-08T15:05:57;8.43;;;1.90;;
56136;SDS011;42008;52.934;5.884;2022-12-08T15:08:24;8.90;;;1.77;;
56136;SDS011;42008;52.934;5.884;2022-12-08T15:11:10;7.83;;;1.80;;
56136;SDS011;42008;52.934;5.884;2022-12-08T15:13:46;5.50;;;1.80;;
56136;SDS011;42008;52.934;5.884;2022-12-08T15:16:22;9.00;;;2.00;;
56136;SDS011;42008;52.934;5.884;2022-12-08T15:19:03;7.55;;;1.92;;
56136;SDS011;42008;52.934;5.884;2022-12-08T15:21:38;6.72;;;2.17;;
56136;SDS011;42008;52.934;5.884;2022-12-08T15:24:04;8.30;;;2.80;;
56136;SDS011;42008;52.934;5.884;2022-12-08T15:26:30;8.83;;;3.90;;
56136;SDS011;42008;52.934;5.884;2022-12-08T15:29:17;10.90;;;2.80;;
56136;SDS011;42008;52.934;5.884;2022-12-08T15:31:43;10.17;;;2.63;;
56136;SDS011;42008;52.934;5.884;2022-12-08T15:34:08;6.80;;;2.10;;
56136;SDS011;42008;52.934;5.884;2022-12-08T15:36:34;6.87;;;2.50;;
56136;SDS011;42008;52.934;5.884;2022-12-08T15:39:02;11.00;;;2.73;;
56136;SDS011;42008;52.934;5.884;2022-12-08T15:41:29;10.37;;;3.47;;
56136;SDS011;42008;52.934;5.884;2022-12-08T15:43:54;8.77;;;3.27;;
56136;SDS011;42008;52.934;5.884;2022-12-08T15:46:20;8.97;;;3.00;;
56136;SDS011;42008;52.934;5.884;2022-12-08T15:48:46;8.63;;;3.67;;
56136;SDS011;42008;52.934;5.884;2022-12-08T15:51:11;6.83;;;3.53;;
56136;SDS011;42008;52.934;5.884;2022-12-08T15:53:37;11.07;;;4.37;;
56136;SDS011;42008;52.934;5.884;2022-12-08T15:56:03;7.63;;;4.10;;
56136;SDS011;42008;52.934;5.884;2022-12-08T15:58:31;13.30;;;6.53;;
56136;SDS011;42008;52.934;5.884;2022-12-08T16:00:57;10.30;;;5.37;;
56136;SDS011;42008;52.934;5.884;2022-12-08T16:03:23;11.53;;;5.77;;
56136;SDS011;42008;52.934;5.884;2022-12-08T16:05:51;16.50;;;7.67;;
56136;SDS011;42008;52.934;5.884;2022-12-08T16:08:17;14.33;;;6.93;;
56136;SDS011;42008;52.934;5.884;2022-12-08T16:10:43;14.33;;;8.87;;
56136;SDS011;42008;52.934;5.884;2022-12-08T16:13:16;16.60;;;8.40;;
56136;SDS011;42008;52.934;5.884;2022-12-08T16:16:02;11.32;;;5.18;;
56136;SDS011;42008;52.934;5.884;2022-12-08T16:18:30;15.43;;;6.70;;
56136;SDS011;42008;52.934;5.884;2022-12-08T16:20:58;11.33;;;4.60;;
56136;SDS011;42008;52.934;5.884;2022-12-08T16:23:24;12.73;;;4.83;;
56136;SDS011;42008;52.934;5.884;2022-12-08T16:25:50;6.43;;;3.73;;
56136;SDS011;42008;52.934;5.884;2022-12-08T16:28:15;9.50;;;4.23;;
56136;SDS011;42008;52.934;5.884;2022-12-08T16:30:41;13.67;;;5.40;;
56136;SDS011;42008;52.934;5.884;2022-12-08T16:33:08;12.50;;;5.37;;
56136;SDS011;42008;52.934;5.884;2022-12-08T16:35:35;9.90;;;4.87;;
56136;SDS011;42008;52.934;5.884;2022-12-08T16:38:00;17.83;;;6.67;;